createdAt,value
2018-02-27T00:02:19.421Z,100956.30
2018-02-27T00:04:46.885Z,100957.30
2018-02-27T00:07:14.321Z,100957.53
2018-02-27T00:09:41.805Z,100962.02
2018-02-27T00:12:09.262Z,100953.70
2018-02-27T00:14:36.712Z,100954.27
2018-02-27T00:17:04.209Z,100953.13
2018-02-27T00:19:31.747Z,100957.09
2018-02-27T00:21:59.540Z,100951.03
2018-02-27T00:24:26.989Z,100947.38
2018-02-27T00:26:54.443Z,100948.77
2018-02-27T00:29:21.906Z,100946.24
2018-02-27T00:31:49.629Z,100958.58
2018-02-27T00:34:17.321Z,100953.70
2018-02-27T00:36:44.766Z,100947.92
2018-02-27T00:39:12.418Z,100951.47
2018-02-27T00:41:39.877Z,100951.02
2018-02-27T00:44:07.343Z,100952.28
2018-02-27T00:46:35.057Z,100954.73
2018-02-27T00:49:02.512Z,100956.39
2018-02-27T00:51:29.959Z,100954.17
2018-02-27T00:53:57.425Z,100955.32
2018-02-27T00:56:24.865Z,100947.60
2018-02-27T00:58:52.605Z,100944.98
2018-02-27T01:01:20.054Z,100942.33
2018-02-27T01:03:47.493Z,100949.26
2018-02-27T01:06:14.958Z,100951.92
2018-02-27T01:08:42.401Z,100950.59
2018-02-27T01:11:09.873Z,100947.59
2018-02-27T01:13:37.318Z,100949.77
2018-02-27T01:16:04.757Z,100947.11
2018-02-27T01:18:32.280Z,100945.28
2018-02-27T01:20:59.797Z,100935.73
2018-02-27T01:23:27.511Z,100932.42
2018-02-27T01:25:54.953Z,100939.69
2018-02-27T01:28:22.392Z,100931.44
2018-02-27T01:30:49.853Z,100934.73
2018-02-27T01:33:17.295Z,100932.29
2018-02-27T01:35:44.933Z,100926.25
2018-02-27T01:38:12.377Z,100922.67
2018-02-27T01:40:39.817Z,100920.41
2018-02-27T01:43:07.293Z,100925.11
2018-02-27T01:45:34.736Z,100931.75
2018-02-27T01:48:02.516Z,100934.97
2018-02-27T01:50:29.968Z,100941.13
2018-02-27T01:52:57.411Z,100944.00
2018-02-27T01:55:24.893Z,100947.55
2018-02-27T01:57:52.338Z,100940.53
2018-02-27T02:00:19.961Z,100935.91
2018-02-27T02:02:47.401Z,100936.28
2018-02-27T02:05:14.941Z,100928.61
2018-02-27T02:07:42.405Z,100922.72
2018-02-27T02:10:09.841Z,100919.59
2018-02-27T02:12:37.314Z,100912.16
2018-02-27T02:15:04.753Z,100909.61
2018-02-27T02:17:32.201Z,100906.68
2018-02-27T02:19:59.670Z,100898.91
2018-02-27T02:22:27.113Z,100892.51
2018-02-27T02:24:54.956Z,100897.38
2018-02-27T02:27:22.416Z,100895.36
2018-02-27T02:29:49.868Z,100884.47
2018-02-27T02:32:17.342Z,100885.98
2018-02-27T02:34:44.790Z,100882.06
2018-02-27T02:37:12.520Z,100882.09
2018-02-27T02:39:40.089Z,100887.83
2018-02-27T02:42:24.657Z,100881.14
2018-02-27T02:44:52.121Z,100888.42
2018-02-27T02:47:19.561Z,100886.98
2018-02-27T02:49:47.025Z,100891.17
2018-02-27T02:52:14.486Z,100893.83
2018-02-27T02:54:41.964Z,100884.69
2018-02-27T02:57:09.421Z,100892.23
2018-02-27T02:59:36.881Z,100894.60
2018-02-27T03:02:04.985Z,100891.78
2018-02-27T03:04:32.433Z,100899.58
2018-02-27T03:06:59.910Z,100898.22
2018-02-27T03:09:27.348Z,100903.28
2018-02-27T03:11:54.788Z,100901.01
2018-02-27T03:14:22.380Z,100891.48
2018-02-27T03:16:49.820Z,100900.61
2018-02-27T03:19:17.317Z,100890.84
2018-02-27T03:21:44.761Z,100884.62
2018-02-27T03:24:12.260Z,100886.45
2018-02-27T03:26:39.728Z,100888.70
2018-02-27T03:29:07.168Z,100877.32
2018-02-27T03:31:34.641Z,100882.84
2018-02-27T03:34:02.099Z,100879.10
2018-02-27T03:36:29.540Z,100875.02
2018-02-27T03:38:57.005Z,100877.30
2018-02-27T03:41:24.446Z,100876.21
2018-02-27T03:43:51.921Z,100872.73
2018-02-27T03:46:19.361Z,100871.14
2018-02-27T03:48:46.936Z,100878.56
2018-02-27T03:51:14.474Z,100874.03
2018-02-27T03:53:41.947Z,100870.55
2018-02-27T03:56:09.566Z,100872.62
2018-02-27T03:58:37.013Z,100871.00
2018-02-27T04:01:04.931Z,100865.11
2018-02-27T04:03:32.457Z,100863.31
2018-02-27T04:05:59.921Z,100855.22
2018-02-27T04:08:27.622Z,100856.80
2018-02-27T04:10:55.063Z,100857.74
2018-02-27T04:13:22.512Z,100851.20
2018-02-27T04:15:49.977Z,100847.64
2018-02-27T04:18:17.728Z,100849.29
2018-02-27T04:20:45.361Z,100851.52
2018-02-27T04:23:12.829Z,100847.73
2018-02-27T04:25:40.269Z,100849.72
2018-02-27T04:28:07.748Z,100840.11
2018-02-27T04:30:35.204Z,100850.84
2018-02-27T04:33:02.831Z,100845.88
2018-02-27T04:35:30.289Z,100854.45
2018-02-27T04:37:57.737Z,100852.68
2018-02-27T04:40:25.198Z,100852.27
2018-02-27T04:42:52.641Z,100847.13
2018-02-27T04:45:20.151Z,100862.36
2018-02-27T04:47:47.783Z,100860.30
2018-02-27T04:50:15.294Z,100861.59
2018-02-27T04:52:42.757Z,100857.75
2018-02-27T04:55:10.213Z,100854.14
2018-02-27T04:57:37.953Z,100855.86
2018-02-27T05:00:05.393Z,100858.66
2018-02-27T05:02:32.841Z,100858.08
2018-02-27T05:05:00.309Z,100862.44
2018-02-27T05:07:27.753Z,100867.86
2018-02-27T05:09:55.397Z,100857.75
2018-02-27T05:12:22.853Z,100857.34
2018-02-27T05:14:50.290Z,100863.80
2018-02-27T05:17:17.754Z,100864.35
2018-02-27T05:19:45.193Z,100865.31
2018-02-27T05:22:12.674Z,100867.19
2018-02-27T05:24:40.113Z,100863.09
2018-02-27T05:27:07.556Z,100858.29
2018-02-27T05:29:35.017Z,100861.37
2018-02-27T05:32:02.476Z,100861.84
2018-02-27T05:34:30.813Z,100859.86
2018-02-27T05:36:58.305Z,100857.48
2018-02-27T05:39:25.753Z,100855.42
2018-02-27T05:41:53.240Z,100863.73
2018-02-27T05:44:20.697Z,100867.12
2018-02-27T05:46:48.561Z,100862.73
2018-02-27T05:49:16.048Z,100865.56
2018-02-27T05:51:43.480Z,100871.82
2018-02-27T05:54:10.949Z,100869.42
2018-02-27T05:56:38.389Z,100870.34
2018-02-27T05:59:06.169Z,100864.77
2018-02-27T06:01:33.617Z,100867.50
2018-02-27T06:04:01.073Z,100862.66
2018-02-27T06:06:28.537Z,100863.56
2018-02-27T06:08:56.010Z,100861.56
2018-02-27T06:11:23.481Z,100867.65
2018-02-27T06:13:50.937Z,100865.06
2018-02-27T06:16:18.394Z,100871.67
2018-02-27T06:18:45.854Z,100867.65
2018-02-27T06:21:13.935Z,100866.92
2018-02-27T06:23:41.416Z,100867.78
2018-02-27T06:26:08.861Z,100861.81
2018-02-27T06:28:36.316Z,100868.86
2018-02-27T06:31:03.789Z,100868.66
2018-02-27T06:33:31.481Z,100863.84
2018-02-27T06:35:59.099Z,100861.53
2018-02-27T06:38:26.536Z,100865.88
2018-02-27T06:40:53.977Z,100863.84
2018-02-27T06:43:21.473Z,100872.75
2018-02-27T06:45:48.921Z,100868.59
2018-02-27T06:48:16.548Z,100871.98
2018-02-27T06:50:44.041Z,100873.64
2018-02-27T06:53:11.510Z,100870.25
2018-02-27T06:55:38.977Z,100874.20
2018-02-27T06:58:06.426Z,100874.08
2018-02-27T07:00:34.085Z,100872.42
2018-02-27T07:03:02.525Z,100869.91
2018-02-27T07:05:29.973Z,100874.25
2018-02-27T07:07:57.821Z,100871.67
2018-02-27T07:10:25.261Z,100876.05
2018-02-27T07:12:52.876Z,100879.80
2018-02-27T07:15:20.320Z,100872.48
2018-02-27T07:17:47.774Z,100875.12
2018-02-27T07:20:15.237Z,100883.20
2018-02-27T07:22:42.690Z,100885.38
2018-02-27T07:25:10.161Z,100882.66
2018-02-27T07:27:37.605Z,100879.03
2018-02-27T07:30:05.061Z,100878.35
2018-02-27T07:32:32.520Z,100892.08
2018-02-27T07:35:00.313Z,100889.87
2018-02-27T07:37:27.973Z,100886.00
2018-02-27T07:39:55.422Z,100888.20
2018-02-27T07:42:22.865Z,100884.79
2018-02-27T07:44:50.370Z,100887.59
2018-02-27T07:47:17.884Z,100894.27
2018-02-27T07:49:45.313Z,100879.08
2018-02-27T07:52:12.753Z,100890.02
2018-02-27T07:54:41.046Z,100881.69
2018-02-27T07:57:08.510Z,100885.39
2018-02-27T07:59:35.981Z,100873.88
2018-02-27T08:02:03.490Z,100883.91
2018-02-27T08:04:30.928Z,100889.63
2018-02-27T08:06:58.395Z,100889.52
2018-02-27T08:09:26.330Z,100878.55
2018-02-27T08:11:53.777Z,100874.95
2018-02-27T08:14:21.345Z,100872.39
2018-02-27T08:16:48.791Z,100878.30
2018-02-27T08:19:16.233Z,100879.00
2018-02-27T08:21:43.692Z,100877.04
2018-02-27T08:24:11.145Z,100884.50
2018-02-27T08:26:38.811Z,100864.23
2018-02-27T08:29:06.334Z,100855.97
2018-02-27T08:31:33.782Z,100872.17
2018-02-27T08:34:01.296Z,100860.69
2018-02-27T08:36:28.743Z,100863.89
2018-02-27T08:38:56.459Z,100871.95
2018-02-27T08:41:24.345Z,100858.09
2018-02-27T08:43:51.962Z,100872.81
2018-02-27T08:46:19.440Z,100864.55
2018-02-27T08:48:46.879Z,100867.56
2018-02-27T08:51:14.670Z,100871.05
2018-02-27T08:53:42.121Z,100869.12
2018-02-27T08:56:09.604Z,100872.44
2018-02-27T08:58:37.043Z,100862.55
2018-02-27T09:01:04.522Z,100866.98
2018-02-27T09:03:31.999Z,100876.12
2018-02-27T09:05:59.438Z,100870.35
2018-02-27T09:08:26.888Z,100871.08
2018-02-27T09:10:54.349Z,100873.52
2018-02-27T09:13:21.793Z,100863.55
2018-02-27T09:15:49.420Z,100857.25
2018-02-27T09:18:16.860Z,100863.92
2018-02-27T09:20:44.421Z,100867.49
2018-02-27T09:23:11.905Z,100858.51
2018-02-27T09:25:39.345Z,100862.98
2018-02-27T09:28:07.083Z,100849.59
2018-02-27T09:30:34.521Z,100849.52
2018-02-27T09:33:02.019Z,100848.70
2018-02-27T09:35:29.481Z,100850.27
2018-02-27T09:37:56.953Z,100854.28
2018-02-27T09:40:25.197Z,100844.57
2018-02-27T09:42:52.685Z,100849.70
2018-02-27T09:45:20.148Z,100849.73
2018-02-27T09:47:47.623Z,100844.95
2018-02-27T09:50:15.062Z,100837.13
2018-02-27T09:52:42.628Z,100824.72
2018-02-27T09:55:10.089Z,100827.50
2018-02-27T09:57:37.541Z,100829.11
2018-02-27T10:00:05.009Z,100823.08
2018-02-27T10:02:32.735Z,100829.62
2018-02-27T10:05:00.350Z,100823.02
2018-02-27T10:07:27.813Z,100827.03
2018-02-27T10:09:55.273Z,100824.63
2018-02-27T10:12:22.737Z,100827.95
2018-02-27T10:14:50.210Z,100820.43
2018-02-27T10:17:17.811Z,100827.50
2018-02-27T10:19:45.284Z,100830.79
2018-02-27T10:22:12.806Z,100826.33
2018-02-27T10:24:40.273Z,100818.25
2018-02-27T10:27:08.507Z,100826.93
2018-02-27T10:29:36.184Z,100828.76
2018-02-27T10:32:03.632Z,100825.47
2018-02-27T10:34:31.072Z,100828.79
2018-02-27T10:36:58.553Z,100837.93
2018-02-27T10:39:26.036Z,100833.81
2018-02-27T10:41:53.481Z,100829.36
2018-02-27T10:44:20.927Z,100829.66
2018-02-27T10:46:48.377Z,100822.95
2018-02-27T10:49:15.869Z,100814.70
2018-02-27T10:51:43.310Z,100811.62
2018-02-27T10:54:10.977Z,100812.31
2018-02-27T10:56:38.444Z,100800.94
2018-02-27T10:59:05.899Z,100795.34
2018-02-27T11:01:33.364Z,100810.86
2018-02-27T11:04:00.806Z,100801.59
2018-02-27T11:06:28.521Z,100796.52
2018-02-27T11:08:55.995Z,100803.89
2018-02-27T11:11:23.442Z,100794.45
2018-02-27T11:13:50.943Z,100799.94
2018-02-27T11:16:18.405Z,100797.34
2018-02-27T11:18:45.884Z,100793.78
2018-02-27T11:21:13.326Z,100786.59
2018-02-27T11:23:40.771Z,100784.03
2018-02-27T11:26:09.148Z,100786.03
2018-02-27T11:28:36.597Z,100781.80
2018-02-27T11:31:04.345Z,100774.05
2018-02-27T11:33:31.789Z,100769.27
2018-02-27T11:35:59.241Z,100773.45
2018-02-27T11:38:26.744Z,100767.09
2018-02-27T11:40:54.189Z,100766.95
2018-02-27T11:43:21.893Z,100769.14
2018-02-27T11:45:49.433Z,100759.15
2018-02-27T11:48:16.889Z,100746.29
2018-02-27T11:50:44.348Z,100746.38
2018-02-27T11:53:11.791Z,100743.76
2018-02-27T11:55:39.477Z,100746.48
2018-02-27T11:58:06.986Z,100743.36
2018-02-27T12:00:34.600Z,100757.91
2018-02-27T12:03:02.178Z,100743.65
2018-02-27T12:05:29.649Z,100730.02
2018-02-27T12:07:57.116Z,100745.56
2018-02-27T12:10:24.564Z,100729.77
2018-02-27T12:12:52.352Z,100728.72
2018-02-27T12:15:19.877Z,100715.00
2018-02-27T12:17:47.335Z,100713.36
2018-02-27T12:20:15.003Z,100714.87
2018-02-27T12:22:44.425Z,100719.80
2018-02-27T12:25:11.870Z,100723.86
2018-02-27T12:27:39.345Z,100718.09
2018-02-27T12:30:06.810Z,100725.69
2018-02-27T12:32:34.521Z,100722.45
2018-02-27T12:35:01.974Z,100713.91
2018-02-27T12:37:29.429Z,100721.86
2018-02-27T12:39:56.919Z,100713.19
2018-02-27T12:42:24.365Z,100710.91
2018-02-27T12:44:51.846Z,100706.55
2018-02-27T12:47:19.737Z,100728.46
2018-02-27T12:49:47.257Z,100708.02
2018-02-27T12:52:14.717Z,100704.87
2018-02-27T12:54:42.174Z,100698.50
2018-02-27T12:57:09.793Z,100696.39
2018-02-27T12:59:37.358Z,100693.48
2018-02-27T13:02:04.801Z,100693.52
2018-02-27T13:04:32.261Z,100691.14
2018-02-27T13:06:59.709Z,100678.52
2018-02-27T13:09:27.457Z,100679.80
2018-02-27T13:11:54.913Z,100675.06
2018-02-27T13:14:22.365Z,100667.75
2018-02-27T13:16:49.902Z,100663.42
2018-02-27T13:19:17.370Z,100660.77
2018-02-27T13:21:45.021Z,100661.90
2018-02-27T13:24:12.457Z,100662.88
2018-02-27T13:26:39.901Z,100665.77
2018-02-27T13:29:07.369Z,100650.27
2018-02-27T13:31:34.813Z,100647.23
2018-02-27T13:34:03.000Z,100657.70
2018-02-27T13:36:30.453Z,100638.59
2018-02-27T13:38:57.896Z,100636.84
2018-02-27T13:41:25.357Z,100624.30
2018-02-27T13:43:52.828Z,100630.55
2018-02-27T13:46:20.517Z,100627.14
2018-02-27T13:48:48.005Z,100631.18
2018-02-27T13:51:15.445Z,100618.56
2018-02-27T13:53:42.929Z,100620.94
2018-02-27T13:56:10.377Z,100618.27
2018-02-27T13:58:38.081Z,100604.72
2018-02-27T14:01:05.539Z,100611.41
2018-02-27T14:03:33.080Z,100606.05
2018-02-27T14:06:00.776Z,100609.48
2018-02-27T14:08:28.228Z,100609.63
2018-02-27T14:10:56.109Z,100608.59
2018-02-27T14:13:23.552Z,100611.58
2018-02-27T14:15:51.013Z,100629.78
2018-02-27T14:18:18.481Z,100603.66
2018-02-27T14:20:46.682Z,100602.22
2018-02-27T14:23:14.378Z,100593.81
2018-02-27T14:25:41.829Z,100589.67
2018-02-27T14:28:09.269Z,100589.37
2018-02-27T14:30:36.734Z,100585.31
2018-02-27T14:33:04.310Z,100590.40
2018-02-27T14:35:32.266Z,100584.23
2018-02-27T14:37:59.713Z,100585.22
2018-02-27T14:40:27.158Z,100587.94
2018-02-27T14:42:54.657Z,100589.14
2018-02-27T14:45:22.109Z,100580.23
2018-02-27T14:47:49.713Z,100593.89
2018-02-27T14:50:17.324Z,100593.73
2018-02-27T14:52:44.812Z,100589.75
2018-02-27T14:55:12.321Z,100581.59
2018-02-27T14:57:39.773Z,100589.19
2018-02-27T15:00:07.262Z,100577.14
2018-02-27T15:02:34.705Z,100579.13
2018-02-27T15:05:02.157Z,100598.91
2018-02-27T15:07:29.831Z,100584.81
2018-02-27T15:09:57.357Z,100578.03
2018-02-27T15:12:24.841Z,100580.07
2018-02-27T15:14:52.298Z,100575.02
2018-02-27T15:17:19.765Z,100577.66
2018-02-27T15:19:47.761Z,100555.02
2018-02-27T15:22:15.198Z,100568.05
2018-02-27T15:24:42.781Z,100564.89
2018-02-27T15:27:10.253Z,100567.07
2018-02-27T15:29:37.702Z,100563.91
2018-02-27T15:32:05.165Z,100569.58
2018-02-27T15:34:32.618Z,100581.92
2018-02-27T15:37:00.113Z,100565.20
2018-02-27T15:39:27.562Z,100581.89
2018-02-27T15:41:55.017Z,100574.96
2018-02-27T15:44:22.531Z,100583.50
2018-02-27T15:46:49.969Z,100574.16
2018-02-27T15:49:17.681Z,100567.20
2018-02-27T15:51:45.213Z,100573.64
2018-02-27T15:54:12.658Z,100577.41
2018-02-27T15:56:40.154Z,100568.72
2018-02-27T15:59:07.609Z,100577.22
2018-02-27T16:01:35.361Z,100572.84
2018-02-27T16:04:02.822Z,100561.39
2018-02-27T16:06:30.450Z,100569.80
2018-02-27T16:08:58.074Z,100576.36
2018-02-27T16:11:25.522Z,100575.94
2018-02-27T16:13:53.027Z,100570.46
2018-02-27T16:16:20.518Z,100572.14
2018-02-27T16:18:49.581Z,100574.09
2018-02-27T16:21:17.069Z,100575.85
2018-02-27T16:23:44.516Z,100579.48
2018-02-27T16:26:12.385Z,100571.03
2018-02-27T16:28:39.826Z,100577.47
2018-02-27T16:31:07.319Z,100567.59
2018-02-27T16:33:36.749Z,100573.26
2018-02-27T16:36:04.982Z,100574.32
2018-02-27T16:38:32.952Z,100573.15
2018-02-27T16:41:01.974Z,100572.67
2018-02-27T16:43:29.450Z,100573.49
2018-02-27T16:45:56.957Z,100574.53
2018-02-27T16:48:24.401Z,100576.97
2018-02-27T16:50:51.881Z,100573.38
2018-02-27T16:53:19.405Z,100580.17
2018-02-27T16:55:46.861Z,100577.11
2018-02-27T16:58:14.327Z,100589.61
2018-02-27T17:00:41.794Z,100583.25
2018-02-27T17:03:09.293Z,100586.11
2018-02-27T17:05:36.750Z,100593.70
2018-02-27T17:08:04.320Z,100587.89
2018-02-27T17:10:31.814Z,100600.73
2018-02-27T17:12:59.637Z,100601.36
2018-02-27T17:15:27.408Z,100602.00
2018-02-27T17:17:54.868Z,100608.08
2018-02-27T17:20:22.313Z,100611.92
2018-02-27T17:22:49.781Z,100609.45
2018-02-27T17:25:17.238Z,100609.08
2018-02-27T17:27:44.733Z,100616.87
2018-02-27T17:30:12.184Z,100617.59
2018-02-27T17:32:39.644Z,100622.17
2018-02-27T17:35:07.133Z,100624.66
2018-02-27T17:37:34.588Z,100622.41
2018-02-27T17:40:02.885Z,100622.45
2018-02-27T17:42:30.327Z,100624.59
2018-02-27T17:44:57.773Z,100619.61
2018-02-27T17:47:25.240Z,100622.51
2018-02-27T17:49:52.760Z,100619.97
2018-02-27T17:52:20.375Z,100621.80
2018-02-27T17:54:47.846Z,100623.30
2018-02-27T17:57:15.306Z,100627.94
2018-02-27T17:59:42.778Z,100620.83
2018-02-27T18:02:10.225Z,100626.72
2018-02-27T18:04:38.045Z,100624.31
2018-02-27T18:07:05.510Z,100624.44
2018-02-27T18:09:32.968Z,100617.92
2018-02-27T18:12:00.470Z,100621.32
2018-02-27T18:14:28.030Z,100622.58
2018-02-27T18:16:56.096Z,100619.16
2018-02-27T18:19:23.592Z,100617.97
2018-02-27T18:21:51.257Z,100621.06
2018-02-27T18:24:18.766Z,100622.77
2018-02-27T18:26:46.387Z,100622.27
2018-02-27T18:29:14.186Z,100629.02
2018-02-27T18:31:41.699Z,100626.17
2018-02-27T18:34:09.564Z,100632.30
2018-02-27T18:36:37.048Z,100623.36
2018-02-27T18:39:04.510Z,100634.23
2018-02-27T18:41:32.284Z,100631.50
2018-02-27T18:44:00.026Z,100631.66
2018-02-27T18:46:27.365Z,100624.36
2018-02-27T18:48:54.897Z,100633.66
2018-02-27T18:51:22.349Z,100631.62
2018-02-27T18:53:50.201Z,100632.66
2018-02-27T18:56:17.738Z,100635.01
2018-02-27T18:58:45.228Z,100636.28
2018-02-27T19:01:12.697Z,100633.52
2018-02-27T19:03:40.182Z,100631.30
2018-02-27T19:06:07.686Z,100634.59
2018-02-27T19:08:35.138Z,100629.67
2018-02-27T19:11:02.591Z,100633.64
2018-02-27T19:13:30.074Z,100631.42
2018-02-27T19:15:57.538Z,100635.80
2018-02-27T19:18:26.372Z,100634.81
2018-02-27T19:20:53.857Z,100629.44
2018-02-27T19:23:21.325Z,100638.98
2018-02-27T19:25:48.885Z,100638.74
2018-02-27T19:28:16.336Z,100641.77
2018-02-27T19:30:44.299Z,100641.42
2018-02-27T19:33:11.782Z,100638.91
2018-02-27T19:35:39.313Z,100649.00
2018-02-27T19:38:06.868Z,100651.84
2018-02-27T19:40:34.600Z,100650.98
2018-02-27T19:43:02.418Z,100654.92
2018-02-27T19:45:29.904Z,100657.87
2018-02-27T19:47:57.382Z,100656.63
2018-02-27T19:50:24.939Z,100648.39
2018-02-27T19:52:52.836Z,100648.89
2018-02-27T19:55:20.643Z,100641.73
2018-02-27T19:57:48.944Z,100644.69
2018-02-27T20:00:16.425Z,100648.30
2018-02-27T20:02:43.885Z,100644.89
2018-02-27T20:05:11.344Z,100645.83
2018-02-27T20:07:38.975Z,100648.54
2018-02-27T20:10:07.266Z,100642.09
2018-02-27T20:12:34.720Z,100645.83
2018-02-27T20:15:02.358Z,100649.48
2018-02-27T20:17:29.834Z,100651.10
2018-02-27T20:19:57.325Z,100653.77
2018-02-27T20:22:30.542Z,100655.10
2018-02-27T20:24:58.164Z,100652.39
2018-02-27T20:27:25.617Z,100647.57
2018-02-27T20:29:53.069Z,100651.72
2018-02-27T20:32:21.477Z,100651.48
2018-02-27T20:34:48.938Z,100659.42
2018-02-27T20:37:16.945Z,100655.52
2018-02-27T20:39:44.818Z,100652.19
2018-02-27T20:42:12.398Z,100660.48
2018-02-27T20:44:39.873Z,100660.44
2018-02-27T20:47:07.334Z,100668.30
2018-02-27T20:49:34.902Z,100664.79
2018-02-27T20:52:02.741Z,100668.60
2018-02-27T20:54:30.206Z,100674.86
2018-02-27T20:56:58.427Z,100667.84
2018-02-27T20:59:25.874Z,100672.09
2018-02-27T21:01:53.484Z,100672.97
2018-02-27T21:04:20.933Z,100667.51
2018-02-27T21:06:48.389Z,100672.88
2018-02-27T21:09:15.870Z,100671.25
2018-02-27T21:11:43.313Z,100678.31
2018-02-27T21:14:10.781Z,100675.82
2018-02-27T21:16:38.257Z,100681.83
2018-02-27T21:19:05.714Z,100682.14
2018-02-27T21:21:33.189Z,100681.73
2018-02-27T21:24:00.693Z,100673.89
2018-02-27T21:26:28.488Z,100673.54
2018-02-27T21:28:56.025Z,100677.13
2018-02-27T21:31:23.496Z,100680.47
2018-02-27T21:33:50.953Z,100672.53
2018-02-27T21:36:18.562Z,100672.64
2018-02-27T21:38:46.256Z,100673.48
2018-02-27T21:41:13.701Z,100669.73
2018-02-27T21:43:41.480Z,100676.98
2018-02-27T21:46:09.002Z,100671.67
2018-02-27T21:48:36.425Z,100672.43
2018-02-27T21:51:04.099Z,100677.09
2018-02-27T21:53:31.562Z,100676.14
2018-02-27T21:55:59.017Z,100680.63
2018-02-27T21:58:26.550Z,100683.26
2018-02-27T22:00:53.993Z,100687.11
2018-02-27T22:03:21.558Z,100691.53
2018-02-27T22:05:49.896Z,100691.06
2018-02-27T22:08:17.342Z,100688.09
2018-02-27T22:10:44.818Z,100687.55
2018-02-27T22:13:13.162Z,100682.62
2018-02-27T22:15:40.655Z,100690.38
2018-02-27T22:18:08.109Z,100688.10
2018-02-27T22:20:35.553Z,100692.59
2018-02-27T22:23:03.053Z,100692.93
2018-02-27T22:25:30.510Z,100693.54
2018-02-27T22:27:57.973Z,100691.98
2018-02-27T22:30:25.517Z,100690.20
2018-02-27T22:32:52.957Z,100692.23
2018-02-27T22:35:20.423Z,100691.93
2018-02-27T22:37:48.852Z,100683.50
2018-02-27T22:40:16.457Z,100688.77
2018-02-27T22:42:43.906Z,100689.20
2018-02-27T22:45:11.474Z,100686.94
2018-02-27T22:47:38.937Z,100690.77
2018-02-27T22:50:06.450Z,100687.81
2018-02-27T22:52:33.917Z,100684.06
2018-02-27T22:55:01.372Z,100687.37
2018-02-27T22:57:28.821Z,100687.83
2018-02-27T22:59:56.286Z,100691.13
2018-02-27T23:02:23.761Z,100691.27
2018-02-27T23:04:51.361Z,100689.87
2018-02-27T23:07:18.845Z,100695.65
2018-02-27T23:09:46.288Z,100687.27
2018-02-27T23:12:13.757Z,100692.43
2018-02-27T23:14:41.201Z,100695.58
2018-02-27T23:17:08.809Z,100693.61
2018-02-27T23:19:36.253Z,100693.77
2018-02-27T23:22:03.703Z,100700.53
2018-02-27T23:24:39.465Z,100699.89
2018-02-27T23:27:09.479Z,100690.08
2018-02-27T23:29:40.353Z,100694.73
2018-02-27T23:32:08.850Z,100692.73
2018-02-27T23:34:39.256Z,100692.44
2018-02-27T23:37:06.714Z,100689.05
2018-02-27T23:39:34.370Z,100694.43
2018-02-27T23:42:01.809Z,100689.16
2018-02-27T23:44:29.275Z,100694.00
2018-02-27T23:46:57.145Z,100696.03
2018-02-27T23:49:24.581Z,100695.12
2018-02-27T23:51:52.513Z,100695.12
2018-02-27T23:54:19.953Z,100696.71
2018-02-27T23:56:47.396Z,100701.12
2018-02-27T23:59:14.857Z,100696.14
